createdAt,value
2022-11-04T00:04:29.259Z,85.80
2022-11-04T00:09:31.389Z,84.90
2022-11-04T00:14:34.920Z,85.00
2022-11-04T00:19:38.411Z,85.10
2022-11-04T00:24:40.625Z,85.40
2022-11-04T00:29:42.752Z,85.30
2022-11-04T00:34:46.347Z,85.60
2022-11-04T00:39:48.441Z,85.80
2022-11-04T00:44:50.595Z,85.80
2022-11-04T00:49:54.481Z,85.70
2022-11-04T00:54:56.561Z,85.80
2022-11-04T00:59:58.676Z,85.60
2022-11-04T01:05:02.217Z,85.60
2022-11-04T01:10:04.982Z,85.80
2022-11-04T01:15:07.805Z,86.10
2022-11-04T01:20:12.260Z,86.40
2022-11-04T01:25:14.596Z,86.40
2022-11-04T01:30:16.837Z,86.30
2022-11-04T01:35:20.341Z,86.30
2022-11-04T01:40:22.487Z,86.50
2022-11-04T01:45:24.596Z,86.60
2022-11-04T01:50:30.832Z,86.70
2022-11-04T01:55:35.753Z,87.10
2022-11-04T02:00:39.495Z,87.10
2022-11-04T02:05:44.094Z,87.30
2022-11-04T02:10:51.589Z,87.20
2022-11-04T02:15:58.805Z,87.30
2022-11-04T02:21:27.440Z,87.20
2022-11-04T02:27:07.140Z,87.50
2022-11-04T02:32:18.620Z,87.70
2022-11-04T02:37:31.655Z,86.90
2022-11-04T02:42:41.810Z,86.70
2022-11-04T02:47:48.919Z,86.70
2022-11-04T02:52:58.655Z,86.60
2022-11-04T02:58:05.510Z,86.80
2022-11-04T03:03:13.961Z,86.80
2022-11-04T03:08:19.622Z,86.80
2022-11-04T03:13:29.052Z,86.80
2022-11-04T03:18:42.431Z,86.80
2022-11-04T03:23:44.651Z,86.90
2022-11-04T03:28:55.940Z,86.90
2022-11-04T03:33:59.483Z,86.90
2022-11-04T03:39:01.727Z,86.90
2022-11-04T03:44:04.118Z,87.00
2022-11-04T03:49:08.225Z,87.00
2022-11-04T03:54:10.493Z,87.00
2022-11-04T03:59:31.328Z,87.00
2022-11-04T04:04:38.494Z,87.10
2022-11-04T04:09:43.789Z,86.80
2022-11-04T04:14:51.580Z,86.70
2022-11-04T04:19:58.792Z,86.70
2022-11-04T04:25:03.145Z,86.70
2022-11-04T04:30:08.400Z,86.70
2022-11-04T04:35:12.276Z,87.10
2022-11-04T04:40:23.888Z,87.40
2022-11-04T04:45:33.265Z,87.50
2022-11-04T04:50:40.147Z,87.90
2022-11-04T04:55:42.285Z,88.00
2022-11-04T05:00:44.437Z,87.90
2022-11-04T05:05:47.968Z,87.80
2022-11-04T05:10:50.076Z,88.00
2022-11-04T05:15:52.480Z,87.80
2022-11-04T05:20:56.048Z,87.90
2022-11-04T05:25:58.958Z,87.80
2022-11-04T05:31:03.516Z,87.70
2022-11-04T05:36:12.064Z,87.60
2022-11-04T05:41:14.148Z,87.70
2022-11-04T05:46:16.292Z,87.50
2022-11-04T05:51:22.208Z,87.50
2022-11-04T05:56:30.867Z,87.50
2022-11-04T06:01:35.429Z,87.40
2022-11-04T06:06:38.945Z,87.50
2022-11-04T06:11:41.164Z,87.60
2022-11-04T06:16:43.995Z,87.60
2022-11-04T06:22:06.137Z,87.60
2022-11-04T06:27:09.298Z,88.30
2022-11-04T06:32:13.846Z,87.60
2022-11-04T06:37:17.527Z,87.50
2022-11-04T06:42:19.805Z,87.40
2022-11-04T06:47:24.778Z,87.30
2022-11-04T06:52:28.928Z,87.30
2022-11-04T06:57:31.081Z,87.40
2022-11-04T07:02:33.383Z,88.70
2022-11-04T07:07:40.301Z,88.10
2022-11-04T07:12:45.587Z,88.00
2022-11-04T07:17:47.651Z,88.00
2022-11-04T07:23:03.239Z,89.20
2022-11-04T07:28:08.958Z,89.40
2022-11-04T07:33:11.385Z,87.60
2022-11-04T07:38:14.993Z,87.20
2022-11-04T07:43:17.129Z,86.20
2022-11-04T07:48:19.272Z,85.20
2022-11-04T07:53:23.125Z,84.50
2022-11-04T07:58:25.592Z,85.60
2022-11-04T08:03:27.818Z,86.60
2022-11-04T08:08:32.219Z,87.00
2022-11-04T08:13:36.960Z,85.10
2022-11-04T08:19:06.677Z,84.70
2022-11-04T08:24:10.250Z,85.60
2022-11-04T08:29:12.420Z,86.40
2022-11-04T08:34:14.787Z,85.70
2022-11-04T08:39:18.747Z,84.20
2022-11-04T08:44:21.482Z,81.80
2022-11-04T08:49:23.768Z,81.00
2022-11-04T08:54:27.909Z,79.30
2022-11-04T08:59:30.266Z,77.10
2022-11-04T09:04:32.511Z,75.80
2022-11-04T09:09:36.133Z,75.50
2022-11-04T09:14:38.319Z,75.70
2022-11-04T09:20:09.093Z,77.00
2022-11-04T09:25:12.799Z,77.60
2022-11-04T09:30:15.275Z,78.70
2022-11-04T09:35:17.589Z,79.40
2022-11-04T09:40:24.547Z,79.00
2022-11-04T09:45:29.777Z,79.00
2022-11-04T09:50:37.116Z,79.60
2022-11-04T09:56:10.598Z,78.80
2022-11-04T10:01:24.669Z,76.70
2022-11-04T10:06:35.821Z,74.90
2022-11-04T10:12:06.241Z,75.20
2022-11-04T10:17:25.298Z,74.70
2022-11-04T10:22:32.741Z,73.70
2022-11-04T10:27:39.976Z,74.20
2022-11-04T10:32:46.395Z,73.60
2022-11-04T10:38:27.180Z,74.40
2022-11-04T10:43:34.904Z,72.00
2022-11-04T10:48:54.948Z,72.90
2022-11-04T10:53:59.515Z,73.00
2022-11-04T10:59:22.356Z,75.20
2022-11-04T11:04:28.337Z,74.10
2022-11-04T11:09:32.945Z,75.50
2022-11-04T11:14:38.326Z,74.50
2022-11-04T11:19:50.152Z,72.20
2022-11-04T11:25:12.618Z,70.20
2022-11-04T11:30:28.620Z,70.40
2022-11-04T11:35:35.377Z,69.80
2022-11-04T11:40:52.114Z,69.00
2022-11-04T11:46:05.628Z,69.00
2022-11-04T11:51:08.448Z,69.60
2022-11-04T11:56:18.394Z,70.90
2022-11-04T12:01:28.475Z,71.80
2022-11-04T12:12:21.357Z,70.80
2022-11-04T12:17:42.679Z,72.30
2022-11-04T12:23:17.796Z,70.40
2022-11-04T12:28:29.579Z,68.80
2022-11-04T12:33:40.408Z,68.40
2022-11-04T12:39:10.154Z,68.90
2022-11-04T12:44:23.471Z,69.10
2022-11-04T12:49:49.310Z,69.40
2022-11-04T12:55:26.161Z,67.40
2022-11-04T13:00:32.060Z,66.60
2022-11-04T13:05:42.952Z,67.10
2022-11-04T13:10:58.682Z,64.80
2022-11-04T13:16:16.474Z,64.40
2022-11-04T13:21:24.465Z,61.90
2022-11-04T13:26:27.026Z,63.00
2022-11-04T13:31:38.009Z,64.40
2022-11-04T13:37:10.381Z,63.10
2022-11-04T13:42:40.308Z,62.60
2022-11-04T13:48:13.260Z,61.80
2022-11-04T13:53:19.688Z,62.90
2022-11-04T13:58:25.761Z,64.20
2022-11-04T14:04:05.922Z,65.10
2022-11-04T14:09:35.791Z,64.60
2022-11-04T14:14:39.452Z,65.00
2022-11-04T14:19:58.806Z,65.90
2022-11-04T14:25:23.517Z,65.70
2022-11-04T14:30:46.293Z,66.10
2022-11-04T14:35:49.441Z,65.90
2022-11-04T14:41:23.600Z,66.80
2022-11-04T14:46:29.422Z,66.80
2022-11-04T14:51:34.110Z,67.50
2022-11-04T14:56:37.676Z,67.80
2022-11-04T15:01:40.710Z,68.00
2022-11-04T15:06:58.470Z,68.40
2022-11-04T15:12:11.597Z,68.90
2022-11-04T15:17:23.022Z,68.90
2022-11-04T15:22:25.409Z,69.20
2022-11-04T15:27:30.013Z,69.30
2022-11-04T15:32:32.245Z,69.60
2022-11-04T15:37:36.822Z,69.70
2022-11-04T15:42:42.809Z,70.80
2022-11-04T15:47:45.068Z,70.20
2022-11-04T15:53:04.425Z,70.40
2022-11-04T15:58:15.221Z,70.60
2022-11-04T16:03:20.040Z,71.10
2022-11-04T16:08:27.421Z,71.30
2022-11-04T16:13:30.805Z,71.30
2022-11-04T16:18:37.283Z,71.60
2022-11-04T16:23:46.415Z,71.50
2022-11-04T16:28:54.812Z,72.00
2022-11-04T16:34:03.039Z,72.40
2022-11-04T16:39:07.750Z,72.70
2022-11-04T16:44:19.713Z,72.90
2022-11-04T16:49:22.240Z,73.30
2022-11-04T16:54:24.356Z,73.20
2022-11-04T16:59:27.982Z,73.40
2022-11-04T17:04:30.291Z,73.70
2022-11-04T17:09:32.424Z,74.80
2022-11-04T17:14:36.055Z,74.10
2022-11-04T17:19:38.231Z,74.20
2022-11-04T17:24:40.547Z,74.30
2022-11-04T17:29:44.284Z,74.40
2022-11-04T17:34:46.675Z,74.50
2022-11-04T17:39:48.849Z,74.70
2022-11-04T17:45:20.922Z,74.80
2022-11-04T17:50:23.513Z,75.50
2022-11-04T17:55:27.712Z,75.10
2022-11-04T18:00:31.621Z,75.10
2022-11-04T18:05:33.802Z,75.40
2022-11-04T18:10:36.034Z,75.40
2022-11-04T18:15:39.705Z,75.50
2022-11-04T18:20:42.082Z,75.70
2022-11-04T18:25:49.605Z,76.60
2022-11-04T18:30:57.073Z,75.90
2022-11-04T18:36:03.957Z,76.40
2022-11-04T18:41:06.279Z,76.40
2022-11-04T18:46:18.880Z,76.50
2022-11-04T18:51:22.932Z,77.20
2022-11-04T18:56:25.113Z,76.80
2022-11-04T19:01:31.135Z,77.10
2022-11-04T19:06:35.345Z,77.30
2022-11-04T19:11:40.425Z,77.40
2022-11-04T19:16:43.991Z,77.40
2022-11-04T19:21:46.131Z,78.40
2022-11-04T19:26:48.250Z,77.50
2022-11-04T19:31:52.139Z,77.60
2022-11-04T19:36:54.267Z,77.80
2022-11-04T19:41:56.527Z,77.80
2022-11-04T19:47:00.163Z,77.80
2022-11-04T19:52:02.639Z,78.10
2022-11-04T19:57:04.983Z,78.20
2022-11-04T20:02:10.500Z,78.40
2022-11-04T20:07:13.393Z,78.70
2022-11-04T20:12:15.539Z,78.70
2022-11-04T20:17:19.150Z,79.00
2022-11-04T20:22:21.322Z,79.20
2022-11-04T20:27:23.474Z,79.40
2022-11-04T20:32:26.982Z,79.50
2022-11-04T20:37:29.151Z,79.70
2022-11-04T20:42:31.416Z,79.90
2022-11-04T20:47:35.168Z,80.20
2022-11-04T20:52:40.219Z,80.20
2022-11-04T20:57:42.417Z,80.10
2022-11-04T21:02:46.026Z,80.00
2022-11-04T21:07:48.277Z,80.00
2022-11-04T21:12:52.165Z,80.00
2022-11-04T21:17:58.624Z,80.10
2022-11-04T21:23:01.466Z,80.10
2022-11-04T21:28:03.838Z,80.00
2022-11-04T21:33:07.509Z,80.20
2022-11-04T21:38:13.234Z,80.30
2022-11-04T21:43:15.378Z,80.60
2022-11-04T21:48:18.961Z,80.60
2022-11-04T21:53:24.826Z,80.70
2022-11-04T21:58:29.140Z,80.70
2022-11-04T22:03:37.934Z,80.60
2022-11-04T22:08:44.530Z,80.80
2022-11-04T22:13:50.824Z,80.90
2022-11-04T22:19:04.668Z,80.80
2022-11-04T22:24:12.881Z,81.20
2022-11-04T22:29:15.306Z,81.00
2022-11-04T22:34:18.868Z,81.10
2022-11-04T22:39:21.025Z,81.30
2022-11-04T22:44:23.160Z,81.40
2022-11-04T22:49:26.849Z,81.40
2022-11-04T22:54:29.005Z,81.50
2022-11-04T22:59:31.189Z,81.20
2022-11-04T23:04:34.911Z,81.10
2022-11-04T23:09:37.012Z,81.10
2022-11-04T23:14:39.168Z,81.10
2022-11-04T23:19:42.905Z,81.20
2022-11-04T23:24:45.012Z,81.40
2022-11-04T23:29:47.071Z,81.60
2022-11-04T23:34:50.561Z,81.60
2022-11-04T23:39:52.661Z,81.90
2022-11-04T23:44:56.173Z,82.10
2022-11-04T23:49:59.709Z,82.30
2022-11-04T23:55:01.862Z,82.30
